Airfield :
LOGIN :

Register | Disclaimer

   EN    FR    IT 

 










Legend :    VFR   Marginal VFR   IFR   Intensive IFR   Very Intensive IFR
Visi :
Ceiling :
>= 8 km
>= 3000ft
5 to 8 km
1000 to 3000 ft
1500m to 5 km
500 to 1000 ft
800 to 1500m
200 to 500 ft
< 800m
< 200 ft
Symbols :   Thunderstorms  Fog  Heavy snow  Heavy precipitations  Wind > 20 kt
SIGMETs :     Misc.  Thunderstorms  Icing  Turbulence  Mountain Waves  Volcanic Ashes






- Airport Elevation : 53 ft
- IATA code : AGP


LEMG - Malaga

CURRENT METAR :
  • 181830Z 11001KT 9999 FEW010 11/10 Q1026 NOSIG

EXPIRED METARs :
  • 181800Z 16004KT 9999 FEW010 13/11 Q1026 NOSIG
  • 181730Z 15004KT 9999 FEW060 13/11 Q1026 NOSIG
  • 181700Z 13005KT 9999 FEW060 13/10 Q1026 NOSIG
  • 181630Z 12004KT CAVOK 14/11 Q1026 NOSIG
  • 181600Z 12005KT 080V160 CAVOK 15/11 Q1026 NOSIG

TAF TAF LEMG
Valid from the 18 at 18:00 until the 19 at 18:00 UTC


181700Z 1818/1918 13006KT 9999 FEW030 TX15/1913Z TN06/1906Z
PROB30
TEMPO 1818/1822 4000 BR
BECMG 1819/1821 29006KT
BECMG 1911/1913 13006KT



MET'MAP, your aeronautical weather chart ! - Copyright ORBIFLY December 2007 - Disclaimer

ORBIFLY MET'MAP TEAM :

Programming & Development : Alexandra Zaïnal
Concept & original design : Baudouin d'Aumeries
Assistance for programming : Marc-Olivier Méhu
Technical & hardware support : Manuel Goepfert

Contact : metmap@orbifly.com




SOURCES & CREDITS :

   NOAA